sensor_id;sensor_type;location;lat;lon;timestamp;temperature;humidity
23769;DHT22;12064;50.890;5.424;2022-10-31T00:02:12;24.00;78.90
23769;DHT22;12064;50.890;5.424;2022-10-31T00:11:03;24.00;79.00
23769;DHT22;12064;50.890;5.424;2022-10-31T00:19:54;24.00;78.80
23769;DHT22;12064;50.890;5.424;2022-10-31T00:28:45;24.00;78.80
23769;DHT22;12064;50.890;5.424;2022-10-31T00:37:35;23.90;78.80
23769;DHT22;12064;50.890;5.424;2022-10-31T00:46:26;23.90;78.70
23769;DHT22;12064;50.890;5.424;2022-10-31T00:55:19;23.90;78.90
23769;DHT22;12064;50.890;5.424;2022-10-31T01:04:10;23.90;78.90
23769;DHT22;12064;50.890;5.424;2022-10-31T01:13:03;23.90;78.90
23769;DHT22;12064;50.890;5.424;2022-10-31T01:22:09;24.00;78.70
23769;DHT22;12064;50.890;5.424;2022-10-31T01:31:05;23.90;78.90
23769;DHT22;12064;50.890;5.424;2022-10-31T01:39:56;23.90;78.80
23769;DHT22;12064;50.890;5.424;2022-10-31T01:48:51;24.00;78.70
23769;DHT22;12064;50.890;5.424;2022-10-31T01:57:45;23.90;78.90
23769;DHT22;12064;50.890;5.424;2022-10-31T02:06:49;23.90;78.90
23769;DHT22;12064;50.890;5.424;2022-10-31T02:15:47;23.80;79.60
23769;DHT22;12064;50.890;5.424;2022-10-31T02:52:36;23.80;79.00
23769;DHT22;12064;50.890;5.424;2022-10-31T03:11:00;23.80;78.90
23769;DHT22;12064;50.890;5.424;2022-10-31T03:19:53;23.80;79.20
23769;DHT22;12064;50.890;5.424;2022-10-31T03:38:22;23.80;79.00
23769;DHT22;12064;50.890;5.424;2022-10-31T03:47:13;23.80;78.90
23769;DHT22;12064;50.890;5.424;2022-10-31T04:05:08;23.70;79.10
23769;DHT22;12064;50.890;5.424;2022-10-31T04:14:04;23.80;79.10
23769;DHT22;12064;50.890;5.424;2022-10-31T04:32:23;23.80;79.10
23769;DHT22;12064;50.890;5.424;2022-10-31T04:41:13;23.80;78.80
23769;DHT22;12064;50.890;5.424;2022-10-31T04:50:04;23.80;78.80
23769;DHT22;12064;50.890;5.424;2022-10-31T04:58:58;23.70;79.10
23769;DHT22;12064;50.890;5.424;2022-10-31T05:07:50;23.90;78.90
23769;DHT22;12064;50.890;5.424;2022-10-31T05:26:32;23.70;78.90
23769;DHT22;12064;50.890;5.424;2022-10-31T05:35:28;23.70;79.10
23769;DHT22;12064;50.890;5.424;2022-10-31T05:44:18;23.80;78.90
23769;DHT22;12064;50.890;5.424;2022-10-31T05:53:09;23.70;79.10
23769;DHT22;12064;50.890;5.424;2022-10-31T06:02:00;23.70;79.20
23769;DHT22;12064;50.890;5.424;2022-10-31T06:10:51;23.70;79.10
23769;DHT22;12064;50.890;5.424;2022-10-31T06:19:44;23.80;78.90
23769;DHT22;12064;50.890;5.424;2022-10-31T06:28:34;23.70;79.30
23769;DHT22;12064;50.890;5.424;2022-10-31T06:37:25;23.80;79.10
23769;DHT22;12064;50.890;5.424;2022-10-31T06:46:16;23.70;79.10
23769;DHT22;12064;50.890;5.424;2022-10-31T06:55:09;23.70;79.10
23769;DHT22;12064;50.890;5.424;2022-10-31T07:03:59;23.70;79.00
23769;DHT22;12064;50.890;5.424;2022-10-31T07:12:58;23.70;79.00
23769;DHT22;12064;50.890;5.424;2022-10-31T07:21:48;23.70;79.00
23769;DHT22;12064;50.890;5.424;2022-10-31T07:30:42;23.60;79.10
23769;DHT22;12064;50.890;5.424;2022-10-31T07:39:32;23.70;79.10
23769;DHT22;12064;50.890;5.424;2022-10-31T07:48:23;23.60;79.20
23769;DHT22;12064;50.890;5.424;2022-10-31T07:57:13;23.70;79.00
23769;DHT22;12064;50.890;5.424;2022-10-31T08:06:04;23.60;79.00
23769;DHT22;12064;50.890;5.424;2022-10-31T08:14:57;23.70;78.90
23769;DHT22;12064;50.890;5.424;2022-10-31T08:23:48;23.60;79.00
23769;DHT22;12064;50.890;5.424;2022-10-31T08:32:41;23.60;79.30
23769;DHT22;12064;50.890;5.424;2022-10-31T08:41:32;23.50;79.20
23769;DHT22;12064;50.890;5.424;2022-10-31T08:50:26;23.60;79.20
23769;DHT22;12064;50.890;5.424;2022-10-31T08:59:19;23.50;79.30
23769;DHT22;12064;50.890;5.424;2022-10-31T09:08:12;23.60;79.10
23769;DHT22;12064;50.890;5.424;2022-10-31T09:17:06;23.50;78.90
23769;DHT22;12064;50.890;5.424;2022-10-31T09:26:00;23.60;79.00
23769;DHT22;12064;50.890;5.424;2022-10-31T09:34:51;23.60;78.90
23769;DHT22;12064;50.890;5.424;2022-10-31T09:43:58;23.60;78.90
23769;DHT22;12064;50.890;5.424;2022-10-31T09:53:08;23.50;78.90
23769;DHT22;12064;50.890;5.424;2022-10-31T10:02:15;23.50;79.30
23769;DHT22;12064;50.890;5.424;2022-10-31T10:11:17;23.60;78.90
23769;DHT22;12064;50.890;5.424;2022-10-31T10:29:36;23.50;79.00
23769;DHT22;12064;50.890;5.424;2022-10-31T10:39:25;23.50;78.90
23769;DHT22;12064;50.890;5.424;2022-10-31T10:48:18;23.60;79.00
23769;DHT22;12064;50.890;5.424;2022-10-31T11:06:36;23.50;79.10
23769;DHT22;12064;50.890;5.424;2022-10-31T11:15:33;23.50;79.00
23769;DHT22;12064;50.890;5.424;2022-10-31T11:24:39;23.50;78.80
23769;DHT22;12064;50.890;5.424;2022-10-31T11:42:23;23.50;78.90
23769;DHT22;12064;50.890;5.424;2022-10-31T11:51:30;23.50;79.10
23769;DHT22;12064;50.890;5.424;2022-10-31T12:00:38;23.50;79.30
23769;DHT22;12064;50.890;5.424;2022-10-31T12:09:34;23.40;79.20
23769;DHT22;12064;50.890;5.424;2022-10-31T12:36:53;23.50;78.70
23769;DHT22;12064;50.890;5.424;2022-10-31T12:45:54;23.50;78.90
23769;DHT22;12064;50.890;5.424;2022-10-31T12:55:16;23.60;78.70
23769;DHT22;12064;50.890;5.424;2022-10-31T13:14:19;23.60;78.80
23769;DHT22;12064;50.890;5.424;2022-10-31T13:22:37;23.60;78.70
23769;DHT22;12064;50.890;5.424;2022-10-31T13:31:28;23.60;78.70
23769;DHT22;12064;50.890;5.424;2022-10-31T13:58:29;23.70;79.50
23769;DHT22;12064;50.890;5.424;2022-10-31T14:07:21;23.60;78.70
23769;DHT22;12064;50.890;5.424;2022-10-31T14:16:27;23.70;78.70
23769;DHT22;12064;50.890;5.424;2022-10-31T14:43:31;23.70;78.60
23769;DHT22;12064;50.890;5.424;2022-10-31T14:52:31;23.70;79.00
23769;DHT22;12064;50.890;5.424;2022-10-31T15:01:33;23.60;79.00
23769;DHT22;12064;50.890;5.424;2022-10-31T15:10:32;23.60;79.10
23769;DHT22;12064;50.890;5.424;2022-10-31T15:19:27;23.60;79.00
23769;DHT22;12064;50.890;5.424;2022-10-31T15:28:23;23.60;79.30
23769;DHT22;12064;50.890;5.424;2022-10-31T15:37:20;23.60;79.30
23769;DHT22;12064;50.890;5.424;2022-10-31T15:46:11;23.50;79.20
23769;DHT22;12064;50.890;5.424;2022-10-31T16:12:50;23.40;79.70
23769;DHT22;12064;50.890;5.424;2022-10-31T16:21:43;23.50;79.60
23769;DHT22;12064;50.890;5.424;2022-10-31T16:30:42;23.50;80.40
23769;DHT22;12064;50.890;5.424;2022-10-31T16:39:33;23.50;79.60
23769;DHT22;12064;50.890;5.424;2022-10-31T16:48:26;23.50;79.50
23769;DHT22;12064;50.890;5.424;2022-10-31T16:57:22;23.50;79.40
23769;DHT22;12064;50.890;5.424;2022-10-31T17:06:14;23.50;79.60
23769;DHT22;12064;50.890;5.424;2022-10-31T17:15:06;23.50;79.10
23769;DHT22;12064;50.890;5.424;2022-10-31T17:24:04;23.50;78.60
23769;DHT22;12064;50.890;5.424;2022-10-31T17:32:55;23.50;79.10
23769;DHT22;12064;50.890;5.424;2022-10-31T17:41:50;23.40;79.20
23769;DHT22;12064;50.890;5.424;2022-10-31T17:50:41;23.50;79.10
23769;DHT22;12064;50.890;5.424;2022-10-31T17:59:32;23.50;79.30
23769;DHT22;12064;50.890;5.424;2022-10-31T18:08:36;23.50;79.30
23769;DHT22;12064;50.890;5.424;2022-10-31T18:17:27;23.40;79.60
23769;DHT22;12064;50.890;5.424;2022-10-31T18:26:18;23.50;79.30
23769;DHT22;12064;50.890;5.424;2022-10-31T18:35:09;23.50;79.50
23769;DHT22;12064;50.890;5.424;2022-10-31T18:44:00;23.50;79.40
23769;DHT22;12064;50.890;5.424;2022-10-31T18:52:50;23.50;79.40
23769;DHT22;12064;50.890;5.424;2022-10-31T19:01:47;23.50;79.30
23769;DHT22;12064;50.890;5.424;2022-10-31T19:10:49;23.50;79.90
23769;DHT22;12064;50.890;5.424;2022-10-31T19:19:40;23.40;80.50
23769;DHT22;12064;50.890;5.424;2022-10-31T19:28:32;23.70;81.20
23769;DHT22;12064;50.890;5.424;2022-10-31T19:37:23;23.70;80.10
23769;DHT22;12064;50.890;5.424;2022-10-31T19:46:41;23.70;80.50
23769;DHT22;12064;50.890;5.424;2022-10-31T19:55:38;23.70;80.30
23769;DHT22;12064;50.890;5.424;2022-10-31T20:04:32;23.80;80.00
23769;DHT22;12064;50.890;5.424;2022-10-31T20:13:27;23.90;79.50
23769;DHT22;12064;50.890;5.424;2022-10-31T20:22:18;24.00;78.90
23769;DHT22;12064;50.890;5.424;2022-10-31T20:31:14;24.10;78.60
23769;DHT22;12064;50.890;5.424;2022-10-31T20:40:08;24.10;78.50
23769;DHT22;12064;50.890;5.424;2022-10-31T20:48:58;24.00;78.50
23769;DHT22;12064;50.890;5.424;2022-10-31T20:57:53;23.90;78.90
23769;DHT22;12064;50.890;5.424;2022-10-31T21:06:44;23.80;79.20
23769;DHT22;12064;50.890;5.424;2022-10-31T21:15:46;23.70;79.40
23769;DHT22;12064;50.890;5.424;2022-10-31T21:24:39;23.60;79.60
23769;DHT22;12064;50.890;5.424;2022-10-31T21:33:30;23.60;79.70
23769;DHT22;12064;50.890;5.424;2022-10-31T21:42:24;23.60;79.60
23769;DHT22;12064;50.890;5.424;2022-10-31T21:51:28;23.60;80.40
23769;DHT22;12064;50.890;5.424;2022-10-31T22:00:19;23.50;79.60
23769;DHT22;12064;50.890;5.424;2022-10-31T22:18:45;23.40;79.70
23769;DHT22;12064;50.890;5.424;2022-10-31T22:27:36;23.50;79.40
23769;DHT22;12064;50.890;5.424;2022-10-31T22:36:29;23.60;79.40
23769;DHT22;12064;50.890;5.424;2022-10-31T22:45:24;23.50;79.50
23769;DHT22;12064;50.890;5.424;2022-10-31T22:54:17;23.40;79.60
23769;DHT22;12064;50.890;5.424;2022-10-31T23:03:07;23.50;79.60
23769;DHT22;12064;50.890;5.424;2022-10-31T23:11:58;23.50;79.60
23769;DHT22;12064;50.890;5.424;2022-10-31T23:21:09;23.40;79.80
23769;DHT22;12064;50.890;5.424;2022-10-31T23:30:27;23.40;79.70
23769;DHT22;12064;50.890;5.424;2022-10-31T23:39:20;23.40;79.70
23769;DHT22;12064;50.890;5.424;2022-10-31T23:48:10;23.40;79.70
23769;DHT22;12064;50.890;5.424;2022-10-31T23:57:06;23.50;79.60
